Time;durP1;ratioP1;P1;durP2;ratioP2;P2;SDS_P1;SDS_P2;PMS_P1;PMS_P2;Temp;Humidity;BMP_temperature;BMP_pressure;BME280_temperature;BME280_humidity;BME280_pressure;Samples;Min_cycle;Max_cycle;Signal;HPM_P1;HPM_P2
2021/04/23 00:00:16;;;;;;;1.60;1.30;;;6.40;90.70;;;;;;5032854;28;20851;-80
2021/04/23 00:02:43;;;;;;;1.50;1.30;;;6.40;91.00;;;;;;5031666;28;20486;-80
2021/04/23 00:05:10;;;;;;;1.50;1.30;;;6.30;90.90;;;;;;5031616;28;20993;-80
2021/04/23 00:07:36;;;;;;;1.50;1.20;;;6.30;90.70;;;;;;5035669;28;20463;-79
2021/04/23 00:10:06;;;;;;;1.60;1.47;;;6.30;91.30;;;;;;5032416;28;20751;-80
2021/04/23 00:12:32;;;;;;;1.50;1.30;;;6.20;91.40;;;;;;5034535;28;20491;-80
2021/04/23 00:14:58;;;;;;;1.57;1.30;;;6.20;91.20;;;;;;5036895;28;20459;-80
2021/04/23 00:17:26;;;;;;;1.60;1.30;;;6.10;91.90;;;;;;5036022;28;20474;-82
2021/04/23 00:19:52;;;;;;;1.60;1.50;;;6.10;91.60;;;;;;5043367;28;20451;-81
2021/04/23 00:22:18;;;;;;;1.50;1.30;;;6.10;91.50;;;;;;5045418;28;20483;-81
2021/04/23 00:24:45;;;;;;;1.57;1.37;;;6.10;91.10;;;;;;5040840;28;20480;-80
2021/04/23 00:27:11;;;;;;;1.50;1.30;;;6.00;91.50;;;;;;5043612;28;20456;-81
2021/04/23 00:29:38;;;;;;;1.60;1.40;;;6.00;91.60;;;;;;5039099;28;20518;-80
2021/04/23 00:32:05;;;;;;;1.60;1.43;;;5.90;90.90;;;;;;5040813;28;20494;-80
2021/04/23 00:34:33;;;;;;;1.50;1.37;;;5.90;92.00;;;;;;5037644;28;20528;-80
2021/04/23 00:37:00;;;;;;;1.57;1.33;;;5.80;92.30;;;;;;5046035;28;20467;-82
2021/04/23 00:39:27;;;;;;;1.60;1.50;;;5.80;92.80;;;;;;5039224;28;20471;-81
2021/04/23 00:41:53;;;;;;;1.57;1.30;;;5.80;92.60;;;;;;5033869;28;20514;-81
2021/04/23 00:44:20;;;;;;;1.50;1.30;;;5.70;92.60;;;;;;5038464;28;20457;-81
2021/04/23 00:46:46;;;;;;;1.57;1.40;;;5.70;92.70;;;;;;5044906;28;20463;-82
2021/04/23 00:49:13;;;;;;;1.60;1.40;;;5.70;93.00;;;;;;5039577;28;20470;-81
2021/04/23 00:51:44;;;;;;;2.30;2.10;;;5.60;93.20;;;;;;5039321;28;20470;-82
2021/04/23 00:54:11;;;;;;;1.60;1.40;;;5.60;93.10;;;;;;5037096;28;20460;-80
2021/04/23 00:56:39;;;;;;;1.50;1.30;;;5.60;92.80;;;;;;5040462;28;20455;-82
2021/04/23 00:59:08;;;;;;;1.60;1.33;;;5.60;93.10;;;;;;5037665;28;20474;-81
2021/04/23 01:01:36;;;;;;;1.57;1.40;;;5.60;92.90;;;;;;5041789;28;20529;-80
2021/04/23 01:04:05;;;;;;;1.60;1.40;;;5.50;93.40;;;;;;5045077;28;20497;-81
2021/04/23 01:06:33;;;;;;;1.50;1.30;;;5.50;93.00;;;;;;5035172;28;20483;-81
2021/04/23 01:09:07;;;;;;;1.60;1.47;;;5.50;93.00;;;;;;5041155;28;20483;-81
2021/04/23 01:11:33;;;;;;;1.60;1.40;;;5.50;93.30;;;;;;5032777;28;20571;-81
2021/04/23 01:14:00;;;;;;;1.53;1.33;;;5.50;93.10;;;;;;5041134;28;20461;-80
2021/04/23 01:16:26;;;;;;;1.50;1.30;;;5.40;93.70;;;;;;5043899;28;21015;-81
2021/04/23 01:18:54;;;;;;;1.50;1.40;;;5.40;92.70;;;;;;5038575;28;20468;-79
2021/04/23 01:21:23;;;;;;;1.60;1.40;;;5.40;93.50;;;;;;5041325;28;20465;-81
2021/04/23 01:23:51;;;;;;;1.50;1.40;;;5.40;92.30;;;;;;5033770;28;20487;-81
2021/04/23 01:26:19;;;;;;;1.50;1.30;;;5.30;92.00;;;;;;5038066;28;20524;-79
2021/04/23 01:28:48;;;;;;;1.50;1.30;;;5.30;92.30;;;;;;5033906;28;20761;-78
2021/04/23 01:31:16;;;;;;;1.60;1.30;;;5.20;93.00;;;;;;5031528;28;20526;-81
2021/04/23 01:33:45;;;;;;;1.60;1.40;;;5.20;93.40;;;;;;5036312;28;20526;-81
2021/04/23 01:36:12;;;;;;;1.50;1.30;;;5.10;93.50;;;;;;5034849;28;20448;-78
2021/04/23 01:38:40;;;;;;;1.50;1.40;;;5.10;95.00;;;;;;5034788;28;21156;-81
2021/04/23 01:41:07;;;;;;;1.53;1.40;;;5.10;95.00;;;;;;5033734;28;20478;-81
2021/04/23 01:43:34;;;;;;;1.57;1.40;;;5.10;95.00;;;;;;5038809;28;21012;-80
2021/04/23 01:46:01;;;;;;;1.50;1.30;;;5.10;94.50;;;;;;5034152;28;20476;-81
2021/04/23 01:48:27;;;;;;;1.60;1.50;;;5.10;95.30;;;;;;5038275;28;20509;-79
2021/04/23 01:50:53;;;;;;;1.60;1.50;;;5.10;94.90;;;;;;5035431;28;20463;-80
2021/04/23 01:53:20;;;;;;;1.70;1.60;;;5.10;94.30;;;;;;5042020;28;20483;-80
2021/04/23 01:55:47;;;;;;;1.57;1.40;;;5.00;94.40;;;;;;5036281;28;20967;-81
2021/04/23 01:58:13;;;;;;;1.53;1.40;;;5.00;94.60;;;;;;5020172;28;20475;-80
2021/04/23 02:00:43;;;;;;;1.50;1.30;;;5.00;94.80;;;;;;5042053;28;21217;-82
2021/04/23 02:03:11;;;;;;;1.60;1.40;;;5.00;94.30;;;;;;5046044;28;21076;-81
2021/04/23 02:05:38;;;;;;;1.60;1.40;;;4.90;94.40;;;;;;5040571;28;20485;-81
2021/04/23 02:08:06;;;;;;;1.50;1.30;;;4.90;94.90;;;;;;5046669;28;20447;-80
2021/04/23 02:10:35;;;;;;;1.60;1.50;;;4.90;94.40;;;;;;5043618;28;20459;-80
2021/04/23 02:13:03;;;;;;;1.57;1.40;;;4.90;95.70;;;;;;5041592;28;20488;-80
2021/04/23 02:15:31;;;;;;;1.50;1.40;;;4.90;95.80;;;;;;5035924;28;20454;-81
2021/04/23 02:18:00;;;;;;;1.60;1.30;;;4.80;96.20;;;;;;5031855;28;20535;-80
2021/04/23 02:20:29;;;;;;;1.57;1.40;;;4.80;95.20;;;;;;5031219;28;20460;-80
2021/04/23 02:22:57;;;;;;;1.53;1.30;;;4.80;95.60;;;;;;5034536;28;20490;-82
2021/04/23 02:25:25;;;;;;;1.60;1.40;;;4.80;95.70;;;;;;5032551;28;20481;-80
2021/04/23 02:27:52;;;;;;;1.53;1.30;;;4.80;96.40;;;;;;5034402;28;20465;-81
2021/04/23 02:30:23;;;;;;;1.53;1.30;;;4.80;96.50;;;;;;5031328;28;20463;-81
2021/04/23 02:32:50;;;;;;;1.57;1.40;;;4.70;95.90;;;;;;5040612;28;20482;-82
2021/04/23 02:35:17;;;;;;;1.60;1.40;;;4.70;96.60;;;;;;5044014;28;20487;-81
2021/04/23 02:37:44;;;;;;;1.60;1.40;;;4.70;96.20;;;;;;5042734;28;20537;-79
2021/04/23 02:40:14;;;;;;;1.60;1.40;;;4.60;96.20;;;;;;5040860;28;20509;-80
2021/04/23 02:42:44;;;;;;;1.60;1.50;;;4.60;96.30;;;;;;5040723;28;20504;-81
2021/04/23 02:45:14;;;;;;;1.60;1.40;;;4.60;96.80;;;;;;5043966;22;20492;-74
2021/04/23 02:47:41;;;;;;;1.60;1.50;;;4.50;96.90;;;;;;5023623;28;20539;-75
2021/04/23 02:50:10;;;;;;;1.57;1.33;;;4.50;95.70;;;;;;5027024;28;21046;-75
2021/04/23 02:52:37;;;;;;;1.60;1.40;;;4.50;95.90;;;;;;5038850;28;20508;-75
2021/04/23 02:55:04;;;;;;;1.57;1.40;;;4.40;96.30;;;;;;5032567;28;20483;-75
2021/04/23 02:57:31;;;;;;;1.57;1.33;;;4.40;96.00;;;;;;5031361;28;21015;-75
2021/04/23 02:59:57;;;;;;;1.57;1.43;;;4.40;96.40;;;;;;5024474;28;20471;-75
2021/04/23 03:02:24;;;;;;;1.60;1.40;;;4.40;96.70;;;;;;5029314;28;20474;-75
2021/04/23 03:04:51;;;;;;;1.60;1.40;;;4.40;96.70;;;;;;5033142;28;20486;-75
2021/04/23 03:07:19;;;;;;;1.60;1.40;;;4.30;96.20;;;;;;5038412;28;20574;-75
2021/04/23 03:09:45;;;;;;;1.60;1.40;;;4.30;96.60;;;;;;5026738;28;20470;-75
2021/04/23 03:12:12;;;;;;;1.53;1.40;;;4.30;97.10;;;;;;5037476;28;20741;-75
2021/04/23 03:14:38;;;;;;;1.60;1.40;;;4.20;96.80;;;;;;5024987;28;20500;-75
2021/04/23 03:17:05;;;;;;;1.57;1.33;;;4.20;96.50;;;;;;5037724;28;20459;-75
2021/04/23 03:19:31;;;;;;;1.60;1.50;;;4.20;96.50;;;;;;5024319;28;20548;-75
2021/04/23 03:21:59;;;;;;;1.60;1.40;;;4.10;96.60;;;;;;5037639;28;20467;-75
2021/04/23 03:24:25;;;;;;;1.57;1.40;;;4.10;96.40;;;;;;5026527;28;20976;-75
2021/04/23 03:26:51;;;;;;;1.60;1.50;;;4.10;97.10;;;;;;5034734;28;20981;-75
2021/04/23 03:29:19;;;;;;;1.60;1.40;;;4.10;97.90;;;;;;5025586;28;20482;-75
2021/04/23 03:31:46;;;;;;;1.60;1.40;;;4.10;97.60;;;;;;5029893;28;20931;-75
2021/04/23 03:34:13;;;;;;;1.53;1.30;;;4.00;97.20;;;;;;5038779;28;20491;-74
2021/04/23 03:36:40;;;;;;;1.60;1.40;;;4.00;97.20;;;;;;5029892;28;20498;-75
2021/04/23 03:39:11;;;;;;;1.60;1.40;;;4.00;97.00;;;;;;5038296;28;20467;-75
2021/04/23 03:41:40;;;;;;;1.60;1.40;;;4.00;97.20;;;;;;5031742;28;20469;-75
2021/04/23 03:44:07;;;;;;;2.73;2.40;;;3.90;97.40;;;;;;5029349;28;20934;-75
2021/04/23 03:46:33;;;;;;;1.60;1.40;;;3.90;97.70;;;;;;5030348;28;20475;-75
2021/04/23 03:49:00;;;;;;;1.60;1.43;;;3.90;97.60;;;;;;5024711;28;20469;-75
2021/04/23 03:51:27;;;;;;;1.60;1.50;;;3.90;98.20;;;;;;5021871;28;20466;-74
2021/04/23 03:53:53;;;;;;;1.73;1.63;;;3.90;98.10;;;;;;5037404;28;20873;-75
2021/04/23 03:56:21;;;;;;;1.60;1.50;;;3.80;98.10;;;;;;5020385;28;20661;-75
2021/04/23 03:58:49;;;;;;;1.50;1.40;;;3.80;98.20;;;;;;5026831;28;20463;-75
2021/04/23 04:01:18;;;;;;;1.60;1.40;;;3.80;98.20;;;;;;5033915;28;20471;-74
2021/04/23 04:03:45;;;;;;;1.53;1.40;;;3.80;98.00;;;;;;5030205;28;21106;-75
2021/04/23 04:06:12;;;;;;;1.60;1.50;;;3.80;97.90;;;;;;5023968;28;21016;-75
2021/04/23 04:08:39;;;;;;;1.60;1.50;;;3.70;98.20;;;;;;5030281;28;20464;-75
2021/04/23 04:11:06;;;;;;;1.60;1.50;;;3.70;98.20;;;;;;5033106;28;20562;-75
2021/04/23 04:13:33;;;;;;;1.57;1.40;;;3.70;98.20;;;;;;5028899;28;20506;-74
2021/04/23 04:16:00;;;;;;;1.57;1.40;;;3.70;98.20;;;;;;5024563;28;20490;-74
2021/04/23 04:18:27;;;;;;;1.60;1.50;;;3.70;98.20;;;;;;5030797;28;20475;-74
2021/04/23 04:20:53;;;;;;;1.63;1.53;;;3.70;98.20;;;;;;5028008;28;20454;-75
2021/04/23 04:23:21;;;;;;;1.60;1.50;;;3.70;98.20;;;;;;5023906;28;20815;-75
2021/04/23 04:25:50;;;;;;;1.60;1.50;;;3.70;98.20;;;;;;5030311;28;20493;-75
2021/04/23 04:28:17;;;;;;;1.60;1.40;;;3.60;98.20;;;;;;5027781;28;20478;-74
2021/04/23 04:30:44;;;;;;;1.60;1.50;;;3.60;98.20;;;;;;5022755;28;20553;-74
2021/04/23 04:33:12;;;;;;;1.60;1.40;;;3.60;98.20;;;;;;5025692;28;20467;-74
2021/04/23 04:35:39;;;;;;;1.60;1.50;;;3.60;98.20;;;;;;5029261;28;21071;-75
2021/04/23 04:38:07;;;;;;;1.60;1.40;;;3.60;98.20;;;;;;5021331;28;20472;-75
2021/04/23 04:40:35;;;;;;;1.60;1.40;;;3.60;98.20;;;;;;5034340;28;20467;-75
2021/04/23 04:43:02;;;;;;;1.57;1.40;;;3.60;98.20;;;;;;5034117;28;20817;-75
2021/04/23 04:45:29;;;;;;;1.70;1.60;;;3.60;98.20;;;;;;5029004;28;20491;-75
2021/04/23 04:47:56;;;;;;;1.60;1.50;;;3.60;98.20;;;;;;5035474;28;21020;-75
2021/04/23 04:50:27;;;;;;;1.60;1.50;;;3.60;98.20;;;;;;5020775;28;20467;-75
2021/04/23 04:52:54;;;;;;;1.60;1.50;;;3.60;98.20;;;;;;5021119;28;20845;-75
2021/04/23 04:55:22;;;;;;;1.57;1.40;;;3.60;98.20;;;;;;5028804;28;20491;-74
2021/04/23 04:57:49;;;;;;;1.80;1.70;;;3.70;98.20;;;;;;5028142;28;21116;-75
2021/04/23 05:00:16;;;;;;;1.60;1.43;;;3.70;98.20;;;;;;5020238;28;20467;-75
2021/04/23 05:02:45;;;;;;;1.60;1.50;;;3.70;98.20;;;;;;5029423;28;20463;-74
2021/04/23 05:05:14;;;;;;;1.70;1.60;;;3.70;98.20;;;;;;5023069;28;20680;-74
2021/04/23 05:07:40;;;;;;;1.60;1.40;;;3.80;98.20;;;;;;5034639;28;20583;-74
2021/04/23 05:10:08;;;;;;;1.60;1.40;;;3.80;98.20;;;;;;5027882;28;20540;-75
2021/04/23 05:12:34;;;;;;;1.63;1.53;;;3.80;98.20;;;;;;5028213;28;20522;-75
2021/04/23 05:15:01;;;;;;;1.50;1.40;;;3.90;98.20;;;;;;5025954;28;20491;-75
2021/04/23 05:17:27;;;;;;;1.57;1.40;;;3.90;98.20;;;;;;5032153;28;20463;-75
2021/04/23 05:19:53;;;;;;;1.50;1.40;;;4.00;98.20;;;;;;5029578;28;20460;-75
2021/04/23 05:22:21;;;;;;;1.57;1.30;;;4.00;98.20;;;;;;5031777;28;20454;-75
2021/04/23 05:24:47;;;;;;;1.60;1.40;;;4.10;98.20;;;;;;5026321;28;20484;-75
2021/04/23 05:27:13;;;;;;;1.53;1.30;;;4.20;98.20;;;;;;5015924;28;20464;-76
2021/04/23 05:29:40;;;;;;;1.57;1.30;;;4.30;98.20;;;;;;5022588;28;20467;-76
2021/04/23 05:32:06;;;;;;;1.53;1.30;;;4.40;98.20;;;;;;5012436;28;20870;-76
2021/04/23 05:34:34;;;;;;;1.60;1.40;;;4.60;98.20;;;;;;5024778;28;20511;-76
2021/04/23 05:37:00;;;;;;;1.57;1.40;;;4.80;98.20;;;;;;5028120;28;20487;-75
2021/04/23 05:39:28;;;;;;;1.50;1.30;;;5.00;98.20;;;;;;5028353;28;20498;-75
2021/04/23 05:41:54;;;;;;;1.60;1.40;;;5.30;98.20;;;;;;5029533;28;20886;-75
2021/04/23 05:44:21;;;;;;;1.57;1.30;;;5.40;98.20;;;;;;5027350;28;20553;-75
2021/04/23 05:46:47;;;;;;;1.53;1.40;;;5.70;98.20;;;;;;5028433;28;20463;-75
2021/04/23 05:49:14;;;;;;;1.53;1.30;;;5.80;97.90;;;;;;5028217;28;20565;-76
2021/04/23 05:51:41;;;;;;;1.50;1.30;;;6.10;97.90;;;;;;5029920;28;20463;-75
2021/04/23 05:54:07;;;;;;;1.60;1.40;;;6.30;98.20;;;;;;5025824;28;20484;-75
2021/04/23 05:56:35;;;;;;;1.50;1.30;;;6.60;96.80;;;;;;5034550;28;20794;-76
2021/04/23 05:59:01;;;;;;;1.50;1.30;;;6.80;96.10;;;;;;5021192;28;20471;-76
2021/04/23 06:01:28;;;;;;;1.57;1.30;;;7.10;95.90;;;;;;5028322;28;20558;-78
2021/04/23 06:03:54;;;;;;;1.50;1.30;;;7.30;94.40;;;;;;5034170;28;20573;-78
2021/04/23 06:06:21;;;;;;;1.57;1.30;;;7.60;93.90;;;;;;5028936;28;20470;-78
2021/04/23 06:08:48;;;;;;;1.50;1.20;;;7.90;92.70;;;;;;5028986;28;20489;-78
2021/04/23 06:11:17;;;;;;;1.50;1.20;;;8.00;91.10;;;;;;5028608;28;20821;-77
2021/04/23 06:13:47;;;;;;;1.50;1.20;;;8.20;91.70;;;;;;5028774;28;20483;-78
2021/04/23 06:16:13;;;;;;;1.60;1.40;;;8.40;90.90;;;;;;5023292;28;20480;-77
2021/04/23 06:18:41;;;;;;;1.50;1.20;;;8.60;91.10;;;;;;5033384;28;20877;-77
2021/04/23 06:21:11;;;;;;;1.53;1.23;;;8.80;89.50;;;;;;5030808;28;20601;-80
2021/04/23 06:23:38;;;;;;;1.57;1.30;;;8.90;88.40;;;;;;5031330;28;20518;-79
2021/04/23 06:26:05;;;;;;;1.50;1.20;;;9.00;87.90;;;;;;5024838;28;20502;-79
2021/04/23 06:28:32;;;;;;;1.50;1.20;;;9.10;87.70;;;;;;5031172;28;20475;-79
2021/04/23 06:30:59;;;;;;;1.50;1.20;;;9.20;87.50;;;;;;5023619;28;20973;-78
2021/04/23 06:33:30;;;;;;;1.50;1.23;;;9.20;87.20;;;;;;5020940;28;20480;-78
2021/04/23 06:35:56;;;;;;;1.50;1.20;;;9.20;88.40;;;;;;5022726;28;20479;-80
2021/04/23 06:38:24;;;;;;;2.53;1.47;;;9.40;86.40;;;;;;5026905;28;20525;-79
2021/04/23 06:40:51;;;;;;;1.50;1.10;;;9.60;86.10;;;;;;5020924;28;20970;-80
2021/04/23 06:43:17;;;;;;;1.50;1.10;;;9.70;86.20;;;;;;5018826;28;20468;-77
2021/04/23 06:45:45;;;;;;;1.50;1.10;;;9.80;85.20;;;;;;5029181;28;20468;-78
2021/04/23 06:48:14;;;;;;;1.50;1.10;;;10.00;85.30;;;;;;5027181;28;20759;-78
2021/04/23 06:50:40;;;;;;;1.50;1.10;;;10.10;85.10;;;;;;5032479;28;21003;-78
2021/04/23 06:53:07;;;;;;;1.50;1.10;;;10.30;83.90;;;;;;5024257;28;20459;-77
2021/04/23 06:55:34;;;;;;;1.50;1.10;;;10.50;84.30;;;;;;5031415;28;20544;-78
2021/04/23 06:58:00;;;;;;;1.50;1.20;;;10.60;83.40;;;;;;5032629;28;20466;-79
2021/04/23 07:00:30;;;;;;;1.50;1.10;;;10.70;83.10;;;;;;5024733;28;20860;-79
2021/04/23 07:02:58;;;;;;;1.60;1.20;;;10.90;82.80;;;;;;5027698;28;20462;-79
2021/04/23 07:05:26;;;;;;;1.50;1.10;;;11.10;82.80;;;;;;5025331;28;20777;-78
2021/04/23 07:07:53;;;;;;;1.50;1.10;;;11.40;82.00;;;;;;5036892;28;20458;-79
2021/04/23 07:10:21;;;;;;;1.50;1.10;;;11.50;80.90;;;;;;5025994;28;20511;-79
2021/04/23 07:12:49;;;;;;;1.50;1.00;;;11.60;80.00;;;;;;5030828;28;20696;-79
2021/04/23 07:15:18;;;;;;;1.50;1.00;;;11.60;78.90;;;;;;5022259;28;20640;-78
2021/04/23 07:17:45;;;;;;;1.50;1.10;;;11.70;79.10;;;;;;5030006;28;20510;-78
2021/04/23 07:20:13;;;;;;;1.50;1.00;;;11.80;79.80;;;;;;5036540;28;20516;-79
2021/04/23 07:22:41;;;;;;;1.50;1.00;;;12.00;78.90;;;;;;5036236;28;21027;-79
2021/04/23 07:25:09;;;;;;;1.50;0.97;;;12.10;77.60;;;;;;5023558;28;20563;-79
2021/04/23 07:27:36;;;;;;;1.50;1.00;;;12.30;77.30;;;;;;5024704;28;20467;-78
2021/04/23 07:30:03;;;;;;;1.50;1.00;;;12.50;76.30;;;;;;5033435;28;20470;-79
2021/04/23 07:32:30;;;;;;;1.50;1.00;;;12.80;76.30;;;;;;5025305;28;20533;-79
2021/04/23 07:34:56;;;;;;;1.50;1.00;;;12.90;75.00;;;;;;5024640;28;20487;-79
2021/04/23 07:37:23;;;;;;;1.50;1.10;;;12.80;74.20;;;;;;5026025;28;20467;-79
2021/04/23 07:39:51;;;;;;;1.50;1.00;;;12.60;74.90;;;;;;5028215;28;20471;-79
2021/04/23 07:42:17;;;;;;;1.50;1.00;;;12.50;75.20;;;;;;5022755;28;20650;-78
2021/04/23 07:44:44;;;;;;;1.50;1.00;;;12.20;75.00;;;;;;5027988;28;20497;-78
2021/04/23 07:47:10;;;;;;;1.47;0.97;;;12.20;76.30;;;;;;5024735;28;20470;-78
2021/04/23 07:49:37;;;;;;;1.50;1.00;;;12.30;75.60;;;;;;5036121;28;20620;-78
2021/04/23 07:52:04;;;;;;;1.50;1.00;;;12.20;75.80;;;;;;5027358;28;20474;-78
2021/04/23 07:54:31;;;;;;;1.50;1.00;;;12.00;76.10;;;;;;5024193;28;20484;-78
2021/04/23 07:56:58;;;;;;;1.50;1.00;;;12.00;76.70;;;;;;5032991;28;21007;-77
2021/04/23 07:59:25;;;;;;;1.47;1.00;;;12.00;76.40;;;;;;5029458;28;20466;-78
2021/04/23 08:01:54;;;;;;;1.50;1.00;;;11.90;75.90;;;;;;5025310;28;21131;-77
2021/04/23 08:04:21;;;;;;;1.50;1.00;;;11.90;75.30;;;;;;5026266;28;20487;-77
2021/04/23 08:06:47;;;;;;;1.50;1.00;;;11.80;75.00;;;;;;5033407;28;20473;-77
2021/04/23 08:09:17;;;;;;;1.50;1.10;;;11.80;75.90;;;;;;5024755;28;20540;-77
2021/04/23 08:11:44;;;;;;;1.50;1.00;;;11.80;75.60;;;;;;5031843;28;20550;-76
2021/04/23 08:14:11;;;;;;;1.50;1.00;;;11.80;74.80;;;;;;5033401;28;20514;-77
2021/04/23 08:16:37;;;;;;;1.50;1.10;;;11.80;75.50;;;;;;5024674;28;20486;-77
2021/04/23 08:19:04;;;;;;;1.50;1.00;;;11.80;75.00;;;;;;5016832;28;20484;-77
2021/04/23 08:21:31;;;;;;;1.50;1.00;;;11.70;76.00;;;;;;5028631;28;20965;-77
2021/04/23 08:23:57;;;;;;;1.50;1.00;;;11.80;76.00;;;;;;5024048;28;20487;-78
2021/04/23 08:26:25;;;;;;;1.50;1.00;;;11.80;75.90;;;;;;5022989;28;20841;-78
2021/04/23 08:28:51;;;;;;;1.50;1.20;;;12.00;75.90;;;;;;5027607;28;20468;-77
2021/04/23 08:31:20;;;;;;;1.50;1.10;;;12.20;76.40;;;;;;5022192;28;20459;-77
2021/04/23 08:33:46;;;;;;;1.50;1.10;;;12.50;74.10;;;;;;5034318;28;20493;-77
2021/04/23 08:36:13;;;;;;;1.50;1.00;;;12.70;73.70;;;;;;5026334;28;21159;-78
2021/04/23 08:38:40;;;;;;;1.50;1.00;;;13.00;73.50;;;;;;5029309;28;20869;-78
2021/04/23 08:41:08;;;;;;;1.50;1.00;;;13.20;72.60;;;;;;5023600;28;20467;-77
2021/04/23 08:43:35;;;;;;;1.50;1.20;;;13.40;72.90;;;;;;5021144;28;20494;-78
2021/04/23 08:46:02;;;;;;;1.50;0.90;;;13.50;72.60;;;;;;5021584;28;20494;-78
2021/04/23 08:48:30;;;;;;;1.60;1.20;;;13.50;71.90;;;;;;5025623;28;20470;-77
2021/04/23 08:50:57;;;;;;;1.50;1.00;;;13.60;71.20;;;;;;5026781;28;20491;-78
2021/04/23 08:53:27;;;;;;;1.50;1.00;;;13.70;71.60;;;;;;5025868;28;20466;-79
2021/04/23 08:55:54;;;;;;;1.50;1.00;;;13.80;72.30;;;;;;5028075;28;20484;-79
2021/04/23 08:58:20;;;;;;;1.50;1.10;;;13.90;71.60;;;;;;5018778;28;20471;-78
2021/04/23 09:00:48;;;;;;;1.50;1.00;;;14.00;70.90;;;;;;5020066;28;20533;-79
2021/04/23 09:03:19;;;;;;;1.50;1.00;;;14.00;71.20;;;;;;5024922;28;20838;-79
2021/04/23 09:06:07;;;;;;;1.50;1.10;;;14.10;71.00;;;;;;5022178;28;20503;-79
2021/04/23 09:08:34;;;;;;;1.50;1.00;;;14.30;69.60;;;;;;5022051;28;20553;-79
2021/04/23 09:11:14;;;;;;;1.47;0.90;;;14.30;69.80;;;;;;5031780;28;20475;-79
2021/04/23 09:13:49;;;;;;;1.50;0.90;;;14.40;70.50;;;;;;5024798;28;20516;-79
2021/04/23 09:16:15;;;;;;;1.50;1.00;;;14.40;69.70;;;;;;5029657;28;20625;-78
2021/04/23 09:18:42;;;;;;;1.50;1.20;;;14.50;70.00;;;;;;5017629;28;20468;-79
2021/04/23 09:21:14;;;;;;;1.50;1.00;;;14.60;70.30;;;;;;5019860;28;20903;-77
2021/04/23 09:23:46;;;;;;;1.50;1.00;;;14.70;69.10;;;;;;5026832;28;20855;-78
2021/04/23 09:26:30;;;;;;;1.50;0.90;;;14.80;68.70;;;;;;5025740;28;20947;-78
2021/04/23 09:28:57;;;;;;;1.50;1.00;;;15.00;68.30;;;;;;5018889;28;20717;-78
2021/04/23 09:31:25;;;;;;;1.50;0.90;;;15.00;68.70;;;;;;5028998;28;20490;-78
2021/04/23 09:33:53;;;;;;;1.50;0.97;;;15.00;69.10;;;;;;5032382;28;20577;-78
2021/04/23 09:36:30;;;;;;;1.50;1.00;;;15.00;68.20;;;;;;5025470;28;20861;-78
2021/04/23 09:39:05;;;;;;;1.50;0.90;;;15.20;69.30;;;;;;5023042;28;20470;-78
2021/04/23 09:41:32;;;;;;;1.50;1.10;;;15.30;68.00;;;;;;5024716;28;20905;-78
2021/04/23 09:43:59;;;;;;;1.50;0.90;;;15.40;66.60;;;;;;5026724;28;20505;-79
2021/04/23 09:46:36;;;;;;;1.50;0.90;;;15.60;68.00;;;;;;5021010;28;20492;-78
2021/04/23 09:49:21;;;;;;;1.50;0.90;;;15.70;67.40;;;;;;5020571;28;20472;-78
2021/04/23 09:51:48;;;;;;;1.50;0.90;;;15.90;67.40;;;;;;5023584;28;20547;-79
2021/04/23 09:54:19;;;;;;;1.60;1.10;;;16.00;66.80;;;;;;5024818;28;20543;-77
2021/04/23 09:56:46;;;;;;;1.50;1.00;;;16.10;66.60;;;;;;5025527;28;21001;-79
2021/04/23 09:59:16;;;;;;;1.50;0.93;;;16.20;67.00;;;;;;5035515;28;20475;-78
2021/04/23 10:01:57;;;;;;;1.50;0.90;;;16.30;67.40;;;;;;5027592;28;20471;-79
2021/04/23 10:04:25;;;;;;;1.50;1.00;;;16.30;65.10;;;;;;5019108;28;21006;-79
2021/04/23 10:07:10;;;;;;;1.50;0.97;;;16.20;66.30;;;;;;5031780;28;20994;-78
2021/04/23 10:09:46;;;;;;;1.50;0.90;;;16.20;65.60;;;;;;5027830;28;20473;-78
2021/04/23 10:12:17;;;;;;;1.50;0.90;;;16.30;64.50;;;;;;5022515;28;20466;-79
2021/04/23 10:14:57;;;;;;;1.50;0.90;;;16.40;66.00;;;;;;5026164;28;20576;-79
2021/04/23 10:17:23;;;;;;;1.50;0.90;;;16.60;64.20;;;;;;5031406;28;20520;-78
2021/04/23 10:19:50;;;;;;;1.50;0.90;;;16.50;65.00;;;;;;5024371;28;20560;-79
2021/04/23 10:22:18;;;;;;;1.50;0.90;;;16.60;66.00;;;;;;5024394;28;20515;-78
2021/04/23 10:24:45;;;;;;;1.50;0.90;;;16.60;65.10;;;;;;5024600;28;20491;-79
2021/04/23 10:27:12;;;;;;;1.50;0.90;;;16.60;65.20;;;;;;5021845;28;20481;-79
2021/04/23 10:29:38;;;;;;;1.47;0.90;;;16.70;66.80;;;;;;5024648;28;20472;-79
2021/04/23 10:32:06;;;;;;;1.50;1.00;;;16.80;65.20;;;;;;5030132;28;20848;-77
2021/04/23 10:34:33;;;;;;;1.50;0.90;;;16.80;65.40;;;;;;5031035;28;20487;-79
2021/04/23 10:37:00;;;;;;;1.50;0.90;;;16.90;64.60;;;;;;5036456;28;20495;-79
2021/04/23 10:39:28;;;;;;;1.43;0.90;;;16.90;63.70;;;;;;5024955;28;20563;-80
2021/04/23 10:41:55;;;;;;;1.43;0.90;;;17.10;63.90;;;;;;5027859;28;20467;-79
2021/04/23 10:44:22;;;;;;;1.50;0.90;;;17.10;63.70;;;;;;5020328;28;20552;-78
2021/04/23 10:46:51;;;;;;;1.50;0.90;;;17.10;64.80;;;;;;5024363;28;20978;-78
2021/04/23 10:49:18;;;;;;;1.50;0.90;;;17.10;63.70;;;;;;5021436;28;20489;-79
2021/04/23 10:51:45;;;;;;;1.60;1.37;;;17.20;65.00;;;;;;5029879;28;20528;-78
2021/04/23 10:54:14;;;;;;;1.50;0.83;;;17.30;62.80;;;;;;5028675;28;20871;-79
2021/04/23 10:56:50;;;;;;;1.47;0.90;;;17.40;64.90;;;;;;5030966;28;20521;-78
2021/04/23 10:59:32;;;;;;;1.50;1.00;;;17.50;65.10;;;;;;5026721;28;20478;-79
2021/04/23 11:02:15;;;;;;;1.47;0.90;;;17.60;64.40;;;;;;5023954;28;20462;-78
2021/04/23 11:04:55;;;;;;;1.50;0.93;;;17.60;62.40;;;;;;5038681;28;20478;-79
2021/04/23 11:07:22;;;;;;;1.47;0.90;;;17.60;63.10;;;;;;5031657;28;20491;-79
2021/04/23 11:09:59;;;;;;;1.50;0.90;;;17.60;64.00;;;;;;5025626;28;21219;-80
2021/04/23 11:12:27;;;;;;;1.47;0.90;;;17.80;64.60;;;;;;5029035;28;20475;-80
2021/04/23 11:15:11;;;;;;;1.50;0.90;;;17.90;63.70;;;;;;5034900;28;20521;-80
2021/04/23 11:17:38;;;;;;;1.50;0.90;;;18.10;62.20;;;;;;5031187;28;20853;-81
2021/04/23 11:20:23;;;;;;;1.50;0.90;;;18.20;64.20;;;;;;5036696;28;20501;-80
2021/04/23 11:22:56;;;;;;;1.50;0.90;;;18.30;62.90;;;;;;5031797;28;20467;-81
2021/04/23 11:25:23;;;;;;;1.47;0.90;;;18.40;63.00;;;;;;5030851;28;20494;-81
2021/04/23 11:28:09;;;;;;;1.43;0.90;;;18.70;63.20;;;;;;5022671;28;20603;-81
2021/04/23 11:31:04;;;;;;;1.47;0.90;;;18.80;61.00;;;;;;5024124;28;20468;-80
2021/04/23 11:33:53;;;;;;;1.70;1.50;;;18.70;62.20;;;;;;5024498;28;20493;-79
2021/04/23 11:36:21;;;;;;;1.50;0.90;;;18.70;60.70;;;;;;5021696;28;20463;-79
2021/04/23 11:39:03;;;;;;;1.50;0.90;;;18.40;61.90;;;;;;5036414;28;20691;-79
2021/04/23 11:41:30;;;;;;;1.50;1.00;;;18.40;61.30;;;;;;5028955;28;20463;-79
2021/04/23 11:43:57;;;;;;;1.50;0.90;;;18.40;61.80;;;;;;5029781;28;21000;-79
2021/04/23 11:46:55;;;;;;;1.47;0.90;;;18.40;61.40;;;;;;5026551;28;20545;-80
2021/04/23 11:49:23;;;;;;;1.50;0.90;;;18.50;62.30;;;;;;5027410;28;20978;-80
2021/04/23 11:52:00;;;;;;;1.47;0.90;;;18.60;60.90;;;;;;5025064;28;20470;-78
2021/04/23 11:54:32;;;;;;;1.47;0.87;;;18.70;60.80;;;;;;5030058;28;21024;-78
2021/04/23 11:57:01;;;;;;;1.50;0.90;;;18.80;61.20;;;;;;5029505;28;20459;-81
2021/04/23 11:59:29;;;;;;;1.50;0.90;;;19.00;61.40;;;;;;5022691;28;20922;-81
2021/04/23 12:01:56;;;;;;;1.50;0.90;;;19.10;60.00;;;;;;5040596;28;20476;-81
2021/04/23 12:04:45;;;;;;;1.47;0.90;;;19.10;59.70;;;;;;5034925;28;20965;-78
2021/04/23 12:07:13;;;;;;;1.47;0.90;;;19.20;61.00;;;;;;5023334;28;20488;-78
2021/04/23 12:09:41;;;;;;;1.50;1.00;;;19.50;59.40;;;;;;5016828;28;20642;-80
2021/04/23 12:12:10;;;;;;;1.47;0.90;;;19.70;59.70;;;;;;5024119;28;20474;-79
2021/04/23 12:14:45;;;;;;;1.50;0.90;;;19.80;59.70;;;;;;5025358;28;20506;-79
2021/04/23 12:17:13;;;;;;;1.50;0.90;;;19.70;60.30;;;;;;5021717;28;20551;-80
2021/04/23 12:19:39;;;;;;;1.47;0.90;;;19.50;60.80;;;;;;5021966;28;20974;-80
2021/04/23 12:22:06;;;;;;;1.47;0.90;;;19.20;60.60;;;;;;5029751;28;20495;-81
2021/04/23 12:24:33;;;;;;;1.50;0.90;;;19.20;62.40;;;;;;5022182;28;20562;-80
2021/04/23 12:26:59;;;;;;;1.50;1.00;;;19.50;62.20;;;;;;5014217;28;20480;-79
2021/04/23 12:29:26;;;;;;;1.50;0.90;;;19.80;60.70;;;;;;5029684;28;20494;-80
2021/04/23 12:31:56;;;;;;;1.50;0.90;;;19.90;61.00;;;;;;5024447;28;20464;-80
2021/04/23 12:34:23;;;;;;;1.50;0.90;;;19.60;59.30;;;;;;5020639;28;20490;-79
2021/04/23 12:36:51;;;;;;;1.50;0.90;;;19.60;60.60;;;;;;5023076;28;21027;-79
2021/04/23 12:39:20;;;;;;;1.50;1.00;;;19.40;59.90;;;;;;5026284;28;20478;-79
2021/04/23 12:41:52;;;;;;;1.50;0.80;;;19.30;61.00;;;;;;5024429;28;20942;-80
2021/04/23 12:44:20;;;;;;;1.50;0.87;;;19.40;62.60;;;;;;5025271;28;21080;-81
2021/04/23 12:46:49;;;;;;;1.93;1.83;;;19.60;60.90;;;;;;5031674;28;20495;-80
2021/04/23 12:49:19;;;;;;;1.50;0.90;;;19.60;59.40;;;;;;5033871;28;20476;-81
2021/04/23 12:51:49;;;;;;;1.50;0.90;;;19.40;60.00;;;;;;5019796;28;20518;-81
2021/04/23 12:54:18;;;;;;;1.50;0.90;;;19.50;60.30;;;;;;5020937;28;20488;-80
2021/04/23 12:56:53;;;;;;;1.47;0.90;;;19.60;60.00;;;;;;5023762;28;20462;-80
2021/04/23 13:00:03;;;;;;;1.50;0.90;;;19.70;61.60;;;;;;5018938;28;20460;-80